Time;durP1;ratioP1;P1;durP2;ratioP2;P2;SDS_P1;SDS_P2;PMS_P1;PMS_P2;Temp;Humidity;BMP_temperature;BMP_pressure;BME280_temperature;BME280_humidity;BME280_pressure;Samples;Min_cycle;Max_cycle;Signal;HPM_P1;HPM_P2
2020/12/02 00:02:12;;;;;;;63.67;30.30;;;;;;;-2.36;76.13;99628.02;125453;1095;65329;-83
2020/12/02 00:04:40;;;;;;;62.43;29.83;;;;;;;-2.37;75.39;99636.75;125226;1096;65268;-84
2020/12/02 00:07:08;;;;;;;70.17;31.10;;;;;;;-2.39;75.69;99634.16;125454;1096;65198;-85
2020/12/02 00:09:35;;;;;;;64.83;31.77;;;;;;;-2.40;76.55;99632.44;125559;1095;65105;-83
2020/12/02 00:12:02;;;;;;;66.97;32.47;;;;;;;-2.41;76.37;99633.33;125697;1095;65233;-82
2020/12/02 00:14:30;;;;;;;63.55;30.60;;;;;;;-2.47;76.48;99636.86;125681;1095;65182;-83
2020/12/02 00:16:57;;;;;;;65.40;29.63;;;;;;;-2.49;75.79;99632.52;125841;1096;65261;-85
2020/12/02 00:19:23;;;;;;;62.93;28.90;;;;;;;-2.53;76.36;99631.70;125495;1095;65197;-84
2020/12/02 00:21:59;;;;;;;71.87;31.23;;;;;;;-2.54;76.52;99632.58;125471;1095;65239;-83
2020/12/02 00:24:27;;;;;;;63.37;29.40;;;;;;;-2.58;76.43;99633.48;125732;1095;65152;-82
2020/12/02 00:26:54;;;;;;;73.97;31.13;;;;;;;-2.66;75.85;99645.77;125646;1095;65172;-86
2020/12/02 00:29:21;;;;;;;70.25;32.90;;;;;;;-2.74;75.96;99639.72;125287;1096;65268;-87
2020/12/02 00:31:47;;;;;;;69.30;30.93;;;;;;;-2.83;75.88;99640.69;125251;1096;65104;-85
2020/12/02 00:34:14;;;;;;;64.93;32.03;;;;;;;-2.89;75.56;99650.33;125567;1095;65264;-84
2020/12/02 00:36:40;;;;;;;69.90;31.47;;;;;;;-2.95;76.05;99642.53;125571;1095;65121;-85
2020/12/02 00:39:07;;;;;;;63.13;28.67;;;;;;;-3.02;76.27;99642.59;125275;1095;65605;-83
2020/12/02 00:41:33;;;;;;;75.20;33.70;;;;;;;-3.09;75.69;99642.65;125276;1095;65224;-87
2020/12/02 00:43:59;;;;;;;62.30;32.13;;;;;;;-3.12;75.45;99645.27;125328;1095;65207;-85
2020/12/02 00:46:26;;;;;;;65.67;31.33;;;;;;;-3.16;76.59;99649.67;125482;1095;65150;-83
2020/12/02 00:48:53;;;;;;;62.20;32.13;;;;;;;-3.20;76.52;99647.95;125887;1095;65213;-84
2020/12/02 00:51:20;;;;;;;59.17;26.30;;;;;;;-3.25;76.22;99649.72;125324;1096;65262;-83
2020/12/02 00:53:47;;;;;;;60.87;30.30;;;;;;;-3.26;76.59;99653.21;125273;1096;65301;-86
2020/12/02 00:56:16;;;;;;;50.73;24.97;;;;;;;-3.29;76.14;99653.25;125449;1095;65185;-83
2020/12/02 00:58:57;;;;;;;60.63;31.63;;;;;;;-3.29;76.38;99661.08;125569;1095;65174;-84
2020/12/02 01:01:38;;;;;;;65.67;29.73;;;;;;;-3.33;76.20;99657.61;125550;1095;65246;-84
2020/12/02 01:04:14;;;;;;;62.60;29.17;;;;;;;-3.36;75.99;99664.62;125299;1095;65365;-83
2020/12/02 01:06:45;;;;;;;55.67;27.90;;;;;;;-3.39;76.65;99659.39;125528;1095;65309;-84
2020/12/02 01:09:14;;;;;;;60.80;30.47;;;;;;;-3.42;76.29;99664.66;125342;1096;65251;-83
2020/12/02 01:11:43;;;;;;;61.57;29.73;;;;;;;-3.45;76.39;99652.46;125275;1096;65201;-87
2020/12/02 01:14:14;;;;;;;54.40;27.07;;;;;;;-3.44;76.45;99658.55;125295;1096;65265;-85
2020/12/02 01:16:45;;;;;;;71.23;31.10;;;;;;;-3.43;76.52;99657.70;125535;1095;65156;-83
2020/12/02 01:19:18;;;;;;;60.10;27.50;;;;;;;-3.45;76.03;99662.05;125875;1095;65248;-84
2020/12/02 01:22:26;;;;;;;67.30;31.90;;;;;;;-3.48;76.81;99656.85;125752;1095;65220;-82
2020/12/02 01:25:11;;;;;;;62.33;31.90;;;;;;;-3.50;76.54;99658.59;125537;1095;65242;-82
2020/12/02 01:27:51;;;;;;;57.63;29.50;;;;;;;-3.56;76.18;99659.52;125587;1095;65153;-85
2020/12/02 01:30:20;;;;;;;64.45;31.45;;;;;;;-3.59;76.70;99665.60;125656;1096;65208;-85
2020/12/02 01:32:47;;;;;;;74.60;34.90;;;;;;;-3.61;76.91;99676.94;125408;1096;65186;-83
2020/12/02 01:35:19;;;;;;;98.75;40.60;;;;;;;-3.63;76.19;99671.70;125297;1096;65238;-83
2020/12/02 01:37:50;;;;;;;100.20;42.33;;;;;;;-3.66;76.43;99666.52;125522;1095;65236;-84
2020/12/02 01:40:26;;;;;;;87.05;36.95;;;;;;;-3.67;76.48;99664.78;125223;1095;65176;-85
2020/12/02 01:43:00;;;;;;;90.50;38.33;;;;;;;-3.65;77.11;99665.63;125281;1096;65230;-82
2020/12/02 01:45:30;;;;;;;85.93;38.63;;;;;;;-3.60;77.16;99663.88;125231;1096;65184;-83
2020/12/02 01:48:28;;;;;;;91.87;37.13;;;;;;;-3.54;77.22;99663.84;125570;1095;65153;-85
2020/12/02 01:51:04;;;;;;;82.93;35.87;;;;;;;-3.59;76.63;99665.60;125544;1095;65178;-83
2020/12/02 01:54:07;;;;;;;72.17;33.60;;;;;;;-3.67;75.91;99663.92;125528;1095;65233;-84
2020/12/02 01:56:55;;;;;;;82.50;33.80;;;;;;;-3.76;76.89;99659.59;125527;1095;65143;-87
2020/12/02 02:00:02;;;;;;;68.33;32.57;;;;;;;-3.78;76.97;99648.30;125530;1095;65153;-82
2020/12/02 02:02:51;;;;;;;70.27;32.03;;;;;;;-3.76;76.78;99649.16;125502;1095;65182;-83
2020/12/02 02:05:25;;;;;;;86.07;36.43;;;;;;;-3.79;76.08;99648.31;125529;1095;65608;-83
2020/12/02 02:07:53;;;;;;;62.70;30.35;;;;;;;-3.78;76.59;99643.08;125282;1095;65255;-87
2020/12/02 02:10:37;;;;;;;72.57;31.30;;;;;;;-3.82;76.42;99643.96;125522;1095;65162;-86
2020/12/02 02:13:28;;;;;;;56.60;27.60;;;;;;;-3.83;76.63;99644.84;125521;1095;65320;-84
2020/12/02 02:16:00;;;;;;;69.93;30.63;;;;;;;-3.84;76.46;99640.50;125531;1095;65079;-84
2020/12/02 02:18:29;;;;;;;55.00;26.20;;;;;;;-3.86;76.76;99637.91;125626;1095;65133;-84
2020/12/02 02:21:01;;;;;;;69.85;29.25;;;;;;;-3.87;76.24;99637.92;125556;1095;65133;-84
2020/12/02 02:23:28;;;;;;;54.67;24.53;;;;;;;-3.86;76.32;99634.44;125504;1095;65315;-84
2020/12/02 02:26:13;;;;;;;64.55;28.60;;;;;;;-3.86;77.02;99637.05;125271;1097;65365;-83
2020/12/02 02:28:53;;;;;;;65.90;29.10;;;;;;;-3.84;77.11;99632.67;125542;1095;65149;-83
2020/12/02 02:31:23;;;;;;;62.93;29.17;;;;;;;-3.85;76.85;99633.55;125603;1095;65155;-84
2020/12/02 02:33:51;;;;;;;42.50;21.10;;;;;;;-3.87;76.77;99641.39;125573;1095;65153;-87
2020/12/02 02:36:24;;;;;;;50.10;25.50;;;;;;;-3.89;76.55;99637.91;125531;1096;65150;-84
2020/12/02 02:38:52;;;;;;;52.30;24.45;;;;;;;-3.91;76.77;99638.80;125549;1095;65309;-87
2020/12/02 02:41:20;;;;;;;47.63;23.80;;;;;;;-3.90;77.12;99640.53;125384;1096;65154;-85
2020/12/02 02:43:46;;;;;;;59.87;28.63;;;;;;;-3.91;76.27;99637.05;125620;1095;65146;-84
2020/12/02 02:46:14;;;;;;;55.13;26.53;;;;;;;-3.89;76.59;99635.30;125319;1096;65194;-85
2020/12/02 02:48:42;;;;;;;52.97;25.33;;;;;;;-3.89;76.92;99629.21;125475;1095;65329;-86
2020/12/02 02:51:10;;;;;;;54.50;25.33;;;;;;;-3.93;76.96;99628.37;125538;1095;65287;-86
2020/12/02 02:53:37;;;;;;;56.95;28.00;;;;;;;-3.96;76.49;99633.59;125489;1095;65182;-84
2020/12/02 02:56:03;;;;;;;62.67;28.63;;;;;;;-4.00;77.05;99634.50;125480;1096;65213;-87
2020/12/02 02:58:30;;;;;;;89.13;32.93;;;;;;;-4.02;76.55;99633.61;125483;1095;65133;-84
2020/12/02 03:01:00;;;;;;;253.20;54.80;;;;;;;-4.06;76.44;99631.91;125528;1095;65181;-85
2020/12/02 03:03:29;;;;;;;137.70;42.17;;;;;;;-4.10;76.34;99620.61;125484;1095;65255;-84
2020/12/02 03:06:00;;;;;;;195.47;47.47;;;;;;;-4.12;76.58;99622.38;125322;1095;65086;-84
2020/12/02 03:08:27;;;;;;;172.43;44.30;;;;;;;-4.15;77.07;99630.19;125534;1095;65226;-84
2020/12/02 03:10:57;;;;;;;151.70;42.47;;;;;;;-4.16;76.70;99628.45;125627;1095;65211;-83
2020/12/02 03:13:42;;;;;;;123.33;34.63;;;;;;;-4.16;76.45;99622.38;125565;1095;65201;-86
2020/12/02 03:16:38;;;;;;;57.58;27.77;;;;;;;-4.18;76.59;99630.22;125864;1095;65268;-84
2020/12/02 03:19:14;;;;;;;80.30;31.47;;;;;;;-4.17;76.64;99636.30;125497;1095;65154;-83
2020/12/02 03:21:41;;;;;;;87.47;31.90;;;;;;;-4.17;76.79;99633.69;125569;1095;65204;-84
2020/12/02 03:24:09;;;;;;;84.50;34.00;;;;;;;-4.19;76.55;99636.31;125339;1096;65192;-83
2020/12/02 03:26:38;;;;;;;84.27;34.17;;;;;;;-4.19;76.70;99631.09;125496;1095;65303;-83
2020/12/02 03:29:06;;;;;;;94.80;35.55;;;;;;;-4.14;76.88;99639.74;125316;1096;65224;-84
2020/12/02 03:31:33;;;;;;;86.20;34.45;;;;;;;-4.14;76.79;99628.45;125499;1095;65150;-85
2020/12/02 03:33:59;;;;;;;89.83;32.03;;;;;;;-4.18;77.06;99627.61;125528;1095;65146;-83
2020/12/02 03:36:26;;;;;;;84.30;32.90;;;;;;;-4.18;76.86;99622.39;125488;1095;65159;-83
2020/12/02 03:38:53;;;;;;;78.27;32.53;;;;;;;-4.21;76.69;99627.60;125522;1095;65156;-84
2020/12/02 03:41:20;;;;;;;75.60;31.17;;;;;;;-4.24;76.60;99632.84;125579;1095;65130;-85
2020/12/02 03:43:47;;;;;;;84.47;32.83;;;;;;;-4.28;76.97;99631.11;125385;1095;65267;-83
2020/12/02 03:46:14;;;;;;;82.20;35.43;;;;;;;-4.30;76.41;99630.26;125543;1095;65364;-85
2020/12/02 03:48:41;;;;;;;89.37;35.60;;;;;;;-4.32;77.21;99628.54;125295;1097;65207;-84
2020/12/02 03:51:07;;;;;;;130.60;40.17;;;;;;;-4.35;76.82;99637.22;125492;1095;66103;-84
2020/12/02 03:53:34;;;;;;;181.23;51.17;;;;;;;-4.38;77.26;99632.03;125593;1095;65297;-84
2020/12/02 03:56:01;;;;;;;133.77;44.87;;;;;;;-4.35;77.28;99638.08;125322;1095;65259;-83
2020/12/02 03:58:27;;;;;;;153.23;48.70;;;;;;;-4.37;77.19;99637.23;125319;1096;65133;-85
2020/12/02 04:00:54;;;;;;;162.13;51.07;;;;;;;-4.37;77.03;99637.23;125664;1095;65179;-84
2020/12/02 04:03:20;;;;;;;125.07;45.37;;;;;;;-4.40;76.82;99636.36;125528;1095;65243;-86
2020/12/02 04:05:47;;;;;;;138.83;47.47;;;;;;;-4.42;76.92;99632.89;125327;1095;65319;-86
2020/12/02 04:08:14;;;;;;;128.27;44.47;;;;;;;-4.45;76.86;99630.31;125313;1096;65154;-84
2020/12/02 04:10:41;;;;;;;134.83;49.13;;;;;;;-4.45;76.98;99635.53;125529;1095;65169;-85
2020/12/02 04:13:07;;;;;;;95.33;39.63;;;;;;;-4.44;77.44;99637.25;125518;1095;65153;-84
2020/12/02 04:15:33;;;;;;;94.53;37.60;;;;;;;-4.42;77.05;99625.94;125499;1095;65251;-85
2020/12/02 04:18:00;;;;;;;102.60;38.13;;;;;;;-4.39;77.15;99633.77;125562;1095;65664;-86
2020/12/02 04:20:27;;;;;;;101.53;41.00;;;;;;;-4.39;77.06;99628.55;125558;1095;65242;-85
2020/12/02 04:22:54;;;;;;;96.80;38.90;;;;;;;-4.36;77.35;99632.88;125291;1096;65152;-85
2020/12/02 04:25:23;;;;;;;87.00;36.63;;;;;;;-4.30;77.19;99632.00;125535;1096;65136;-84
2020/12/02 04:27:50;;;;;;;79.45;35.95;;;;;;;-4.28;77.62;99636.33;125535;1095;65133;-86
2020/12/02 04:30:18;;;;;;;82.50;37.17;;;;;;;-4.21;77.87;99630.21;125565;1095;65237;-83
2020/12/02 04:32:46;;;;;;;84.47;35.17;;;;;;;-4.16;77.83;99632.81;125514;1095;65130;-84
2020/12/02 04:35:13;;;;;;;78.60;37.47;;;;;;;-4.22;77.57;99625.88;125516;1095;65169;-88
2020/12/02 04:37:40;;;;;;;78.20;36.63;;;;;;;-4.30;77.42;99624.17;125480;1096;65217;-85
2020/12/02 04:40:10;;;;;;;98.87;43.17;;;;;;;-4.32;77.58;99629.41;125324;1097;65248;-85
2020/12/02 04:42:46;;;;;;;107.45;45.10;;;;;;;-4.37;77.22;99633.76;125509;1095;65280;-83
2020/12/02 04:45:16;;;;;;;109.80;48.50;;;;;;;-4.42;77.10;99635.50;125550;1096;65146;-85
2020/12/02 04:47:43;;;;;;;108.13;45.40;;;;;;;-4.45;77.18;99628.57;125538;1095;65243;-86
2020/12/02 04:50:26;;;;;;;115.20;47.07;;;;;;;-4.49;76.87;99625.97;125672;1095;65226;-85
2020/12/02 04:53:20;;;;;;;99.03;41.90;;;;;;;-4.52;77.41;99632.03;125261;1095;65178;-87
2020/12/02 04:55:51;;;;;;;106.83;44.37;;;;;;;-4.49;77.14;99625.97;125558;1095;65159;-85
2020/12/02 04:58:27;;;;;;;112.67;46.30;;;;;;;-4.53;77.30;99624.23;125494;1095;65153;-85
2020/12/02 05:00:54;;;;;;;120.20;45.00;;;;;;;-4.58;76.89;99618.15;125879;1095;65150;-85
2020/12/02 05:03:22;;;;;;;118.33;43.13;;;;;;;-4.54;77.29;99617.28;125556;1095;65201;-88
2020/12/02 05:05:59;;;;;;;110.45;47.00;;;;;;;-4.56;77.46;99613.83;125555;1095;65150;-85
2020/12/02 05:08:30;;;;;;;130.10;47.93;;;;;;;-4.66;77.29;99618.17;125501;1096;65281;-85
2020/12/02 05:10:58;;;;;;;153.53;55.87;;;;;;;-4.73;77.17;99629.48;125576;1095;65156;-85
2020/12/02 05:13:25;;;;;;;195.70;65.90;;;;;;;-4.77;77.42;99625.13;125513;1095;65150;-85
2020/12/02 05:16:11;;;;;;;152.13;55.43;;;;;;;-4.75;77.30;99629.49;125495;1095;65268;-84
2020/12/02 05:18:38;;;;;;;132.97;50.70;;;;;;;-4.79;77.40;99627.75;125635;1095;65120;-84
2020/12/02 05:21:19;;;;;;;128.20;49.30;;;;;;;-4.73;77.80;99627.74;125556;1096;65136;-83
2020/12/02 05:24:04;;;;;;;134.57;50.40;;;;;;;-4.75;77.35;99626.88;125493;1095;65143;-84
2020/12/02 05:26:34;;;;;;;116.65;47.65;;;;;;;-4.80;77.15;99623.41;125489;1095;65137;-85
2020/12/02 05:29:08;;;;;;;118.70;47.05;;;;;;;-4.82;77.47;99619.09;125589;1095;65319;-85
2020/12/02 05:31:34;;;;;;;117.77;50.83;;;;;;;-4.86;77.52;99620.81;125520;1095;65378;-85
2020/12/02 05:34:15;;;;;;;113.57;45.60;;;;;;;-4.81;77.81;99624.28;125542;1096;65086;-85
2020/12/02 05:36:52;;;;;;;140.13;52.43;;;;;;;-4.76;77.66;99616.47;125589;1095;65166;-88
2020/12/02 05:39:30;;;;;;;120.97;48.93;;;;;;;-4.74;77.45;99626.01;125269;1096;65146;-85
2020/12/02 05:41:57;;;;;;;127.23;50.10;;;;;;;-4.74;78.03;99626.01;125573;1095;65152;-85
2020/12/02 05:44:39;;;;;;;160.67;53.07;;;;;;;-4.67;77.87;99624.26;125535;1095;65146;-86
2020/12/02 05:47:11;;;;;;;113.37;46.07;;;;;;;-4.71;77.65;99628.63;125546;1095;65175;-84
2020/12/02 05:49:38;;;;;;;109.80;41.80;;;;;;;-4.75;77.53;99629.49;125516;1095;65200;-88
2020/12/02 05:52:13;;;;;;;120.73;45.20;;;;;;;-4.80;77.32;99620.81;125558;1096;65255;-86
2020/12/02 05:54:40;;;;;;;129.70;49.50;;;;;;;-4.79;77.58;99634.70;125583;1095;65188;-85
2020/12/02 05:57:10;;;;;;;141.05;50.45;;;;;;;-4.80;77.56;99627.76;125523;1096;65176;-85
2020/12/02 05:59:37;;;;;;;118.27;45.07;;;;;;;-4.81;77.73;99624.28;125296;1096;65245;-85
2020/12/02 06:02:04;;;;;;;143.87;52.77;;;;;;;-4.78;78.25;99631.22;125674;1095;65287;-86
2020/12/02 06:04:31;;;;;;;135.63;57.87;;;;;;;-4.75;77.54;99626.88;125522;1095;65243;-86
2020/12/02 06:06:57;;;;;;;120.10;50.37;;;;;;;-4.75;77.52;99624.28;125276;1097;65599;-86
2020/12/02 06:09:37;;;;;;;140.97;56.57;;;;;;;-4.78;77.49;99629.48;125545;1096;65153;-85
2020/12/02 06:12:04;;;;;;;145.30;58.07;;;;;;;-4.77;77.69;99635.55;125607;1095;65294;-89
2020/12/02 06:14:36;;;;;;;153.97;64.03;;;;;;;-4.80;77.65;99628.63;125510;1095;65214;-88
2020/12/02 06:17:04;;;;;;;153.17;59.67;;;;;;;-4.78;77.82;99623.40;125527;1095;65156;-84
2020/12/02 06:19:39;;;;;;;171.57;69.30;;;;;;;-4.78;77.53;99623.40;125540;1095;65150;-86
2020/12/02 06:22:07;;;;;;;169.43;66.47;;;;;;;-4.77;77.58;99625.13;125724;1095;65191;-83
2020/12/02 06:24:47;;;;;;;167.50;66.97;;;;;;;-4.78;77.33;99619.05;125515;1094;65227;-88
2020/12/02 06:27:14;;;;;;;150.70;59.00;;;;;;;-4.76;77.89;99625.16;125660;1095;65163;-85
2020/12/02 06:29:45;;;;;;;153.35;60.25;;;;;;;-4.76;77.50;99622.55;125642;1095;65147;-87
2020/12/02 06:32:20;;;;;;;147.07;59.00;;;;;;;-4.74;77.77;99630.36;125261;1096;65162;-89
2020/12/02 06:34:48;;;;;;;140.83;55.37;;;;;;;-4.73;77.83;99622.53;125519;1095;65141;-85
2020/12/02 06:37:24;;;;;;;126.43;51.43;;;;;;;-4.73;77.57;99622.53;125759;1095;65294;-85
2020/12/02 06:39:58;;;;;;;131.97;54.53;;;;;;;-4.70;77.59;99627.75;125334;1096;65188;-85
2020/12/02 06:42:42;;;;;;;127.07;50.10;;;;;;;-4.68;77.49;99626.00;125530;1095;65238;-84
2020/12/02 06:45:36;;;;;;;132.53;57.40;;;;;;;-4.68;77.78;99623.39;125613;1095;65127;-84
2020/12/02 06:48:26;;;;;;;154.60;59.03;;;;;;;-4.53;78.21;99629.44;125561;1095;65238;-86
2020/12/02 06:50:57;;;;;;;131.85;55.35;;;;;;;-4.48;77.58;99622.48;125505;1095;65152;-86
2020/12/02 06:53:25;;;;;;;163.60;65.40;;;;;;;-4.49;77.73;99621.62;125610;1095;65246;-84
2020/12/02 06:55:59;;;;;;;177.70;68.17;;;;;;;-4.46;77.62;99620.73;125255;1096;65076;-87
2020/12/02 06:58:25;;;;;;;187.27;68.87;;;;;;;-4.38;77.60;99619.86;125645;1096;65246;-82
2020/12/02 07:00:57;;;;;;;191.30;69.90;;;;;;;-4.25;78.11;99618.08;125921;1090;65201;-83
2020/12/02 07:03:43;;;;;;;167.40;65.67;;;;;;;-4.16;78.25;99619.77;125456;1095;65233;-86
2020/12/02 07:06:15;;;;;;;159.40;63.43;;;;;;;-4.10;78.40;99619.75;125782;1095;65159;-86
2020/12/02 07:08:44;;;;;;;135.93;56.47;;;;;;;-4.03;77.64;99620.59;125713;1090;65159;-83
2020/12/02 07:11:16;;;;;;;134.33;53.20;;;;;;;-4.00;78.19;99620.59;125713;1096;65159;-85
2020/12/02 07:13:49;;;;;;;128.17;50.23;;;;;;;-3.94;77.55;99618.82;125659;1095;65121;-83
2020/12/02 07:16:34;;;;;;;113.70;46.60;;;;;;;-3.86;77.93;99624.86;125645;1095;65129;-83
2020/12/02 07:19:11;;;;;;;113.33;44.57;;;;;;;-3.74;77.70;99621.33;125863;1095;65125;-82
2020/12/02 07:21:49;;;;;;;114.85;46.85;;;;;;;-3.54;78.85;99618.59;125870;1095;65272;-84
2020/12/02 07:24:40;;;;;;;109.53;45.07;;;;;;;-3.40;78.12;99618.50;125674;1095;65354;-83
2020/12/02 07:27:08;;;;;;;105.23;44.10;;;;;;;-3.32;78.01;99611.47;125521;1096;65249;-83
2020/12/02 07:29:35;;;;;;;159.80;59.03;;;;;;;-3.26;78.42;99609.67;125828;1095;65261;-83
2020/12/02 07:32:12;;;;;;;115.57;50.03;;;;;;;-3.18;78.06;99612.25;125759;1095;65248;-82
2020/12/02 07:34:39;;;;;;;127.60;51.10;;;;;;;-3.07;77.81;99609.53;125765;1095;65137;-81
2020/12/02 07:37:12;;;;;;;126.27;48.33;;;;;;;-2.98;77.41;99608.61;125536;1096;65223;-81
2020/12/02 07:39:46;;;;;;;129.30;53.20;;;;;;;-2.95;77.55;99613.80;125655;1096;65217;-81
2020/12/02 07:42:18;;;;;;;125.80;47.13;;;;;;;-2.88;77.63;99612.85;125546;1095;65182;-82
2020/12/02 07:45:04;;;;;;;151.40;60.13;;;;;;;-2.75;77.59;99614.47;125760;1095;65261;-81
2020/12/02 07:47:34;;;;;;;259.40;85.20;;;;;;;-2.58;78.77;99604.72;125500;1096;65175;-85
2020/12/02 07:50:06;;;;;;;306.50;97.10;;;;;;;-2.47;78.52;99600.25;125611;1096;65329;-83
2020/12/02 07:52:41;;;;;;;283.73;93.07;;;;;;;-2.42;77.70;99609.77;125324;1095;65079;-83
2020/12/02 07:55:17;;;;;;;225.40;78.97;;;;;;;-2.39;78.07;99607.14;125453;1095;65130;-83
2020/12/02 07:57:44;;;;;;;163.80;62.10;;;;;;;-2.33;78.15;99607.08;125493;1095;65181;-82
2020/12/02 08:00:27;;;;;;;150.53;57.47;;;;;;;-2.28;78.33;99600.05;125523;1095;65176;-82
2020/12/02 08:02:54;;;;;;;222.63;70.37;;;;;;;-2.25;77.67;99606.09;125389;1096;65188;-82
2020/12/02 08:05:44;;;;;;;190.80;62.75;;;;;;;-2.23;76.90;99609.58;125635;1095;65136;-85
2020/12/02 08:08:12;;;;;;;154.60;54.43;;;;;;;-2.20;77.11;99609.53;125860;1095;65280;-81
2020/12/02 08:10:39;;;;;;;138.20;53.10;;;;;;;-2.11;77.75;99599.83;125878;1090;65127;-83
2020/12/02 08:13:20;;;;;;;114.70;45.77;;;;;;;-2.03;76.83;99600.62;125626;1096;65248;-80
2020/12/02 08:15:53;;;;;;;109.13;41.90;;;;;;;-1.88;77.44;99599.55;126138;1095;65169;-81
2020/12/02 08:18:26;;;;;;;123.50;44.03;;;;;;;-1.77;77.28;99601.14;125649;1095;65170;-82
2020/12/02 08:21:04;;;;;;;105.63;42.83;;;;;;;-1.63;78.32;99606.18;125733;1095;65210;-81
2020/12/02 08:23:35;;;;;;;124.40;48.13;;;;;;;-1.52;77.24;99604.28;125654;1095;65343;-82
2020/12/02 08:26:17;;;;;;;129.40;49.63;;;;;;;-1.45;77.96;99608.54;125707;1095;65150;-82
2020/12/02 08:28:45;;;;;;;144.13;52.33;;;;;;;-1.32;78.34;99590.88;125652;1095;65178;-83
2020/12/02 08:31:29;;;;;;;127.83;47.50;;;;;;;-1.23;77.29;99600.34;125812;1095;65226;-82
2020/12/02 08:34:23;;;;;;;114.10;45.53;;;;;;;-1.14;77.42;99601.08;125450;1095;65181;-82
2020/12/02 08:37:12;;;;;;;105.80;42.97;;;;;;;-1.06;76.87;99595.70;125896;1095;65235;-80
2020/12/02 08:39:41;;;;;;;102.03;41.80;;;;;;;-0.98;76.87;99590.33;125633;1095;65178;-82
2020/12/02 08:42:31;;;;;;;88.35;38.70;;;;;;;-0.88;77.07;99589.29;125599;1095;65140;-81
2020/12/02 08:45:19;;;;;;;93.53;39.20;;;;;;;-0.82;76.91;99587.42;125629;1095;65230;-80
2020/12/02 08:47:57;;;;;;;95.63;38.33;;;;;;;-0.73;77.38;99590.77;125540;1095;65326;-81
2020/12/02 08:50:30;;;;;;;103.93;41.50;;;;;;;-0.69;77.79;99587.20;125754;1095;65173;-83
2020/12/02 08:53:00;;;;;;;107.13;45.07;;;;;;;-0.62;77.08;99578.33;125819;1096;65160;-82
2020/12/02 08:55:27;;;;;;;121.23;43.77;;;;;;;-0.53;76.74;99572.90;125758;1095;65150;-81
2020/12/02 08:57:55;;;;;;;119.67;47.63;;;;;;;-0.41;77.69;99572.66;125832;1095;65134;-83
2020/12/02 09:00:26;;;;;;;143.40;55.50;;;;;;;-0.30;77.82;99564.59;125543;1095;65355;-81
2020/12/02 09:02:55;;;;;;;156.77;58.80;;;;;;;-0.22;77.06;99567.92;126141;1090;65274;-84
2020/12/02 09:05:24;;;;;;;162.00;56.87;;;;;;;-0.14;76.92;99565.13;125748;1088;65226;-80
2020/12/02 09:07:51;;;;;;;138.10;49.43;;;;;;;-0.07;77.57;99571.98;126437;1095;66330;-84
2020/12/02 09:10:20;;;;;;;135.57;48.53;;;;;;;0.01;76.84;99564.83;125581;1095;65144;-81
2020/12/02 09:12:47;;;;;;;118.77;45.10;;;;;;;0.09;77.50;99560.27;125839;1096;65143;-80
2020/12/02 09:15:18;;;;;;;97.40;42.93;;;;;;;0.18;77.16;99567.07;125528;1095;65207;-81
2020/12/02 09:17:45;;;;;;;83.87;36.20;;;;;;;0.25;77.38;99551.16;125963;1090;65272;-81
2020/12/02 09:20:14;;;;;;;85.40;35.30;;;;;;;0.27;77.05;99548.50;125521;1095;65166;-80
2020/12/02 09:22:42;;;;;;;79.23;34.77;;;;;;;0.32;77.30;99544.01;125603;1095;65153;-80
2020/12/02 09:25:10;;;;;;;87.60;35.37;;;;;;;0.41;77.46;99542.92;125463;1095;65317;-82
2020/12/02 09:27:38;;;;;;;57.87;27.13;;;;;;;0.50;76.97;99543.55;125529;1095;65157;-80
2020/12/02 09:30:08;;;;;;;59.27;28.53;;;;;;;0.59;77.13;99541.63;125454;1095;65331;-81
2020/12/02 09:32:36;;;;;;;59.07;26.93;;;;;;;0.62;76.92;99538.91;125477;1095;65114;-79
2020/12/02 09:35:06;;;;;;;57.40;25.87;;;;;;;0.68;76.54;99528.25;125557;1095;65239;-79
2020/12/02 09:37:34;;;;;;;52.37;25.80;;;;;;;0.77;76.89;99528.91;125453;1095;65262;-81
2020/12/02 09:40:05;;;;;;;51.70;25.87;;;;;;;0.86;77.14;99529.57;125453;1096;65147;-79
2020/12/02 09:42:55;;;;;;;56.30;27.03;;;;;;;0.93;76.52;99521.48;126086;1096;65252;-78
2020/12/02 09:45:39;;;;;;;49.57;25.20;;;;;;;1.06;77.11;99522.02;125595;1095;65191;-79
2020/12/02 09:48:15;;;;;;;54.07;29.23;;;;;;;1.19;76.76;99519.94;125858;1095;65635;-82
2020/12/02 09:50:42;;;;;;;53.10;25.67;;;;;;;1.30;76.90;99515.26;125521;1095;65211;-81
2020/12/02 09:53:24;;;;;;;52.33;27.90;;;;;;;1.39;77.00;99514.99;125685;1095;65224;-80
2020/12/02 09:55:51;;;;;;;56.20;26.65;;;;;;;1.47;76.66;99513.03;125425;1096;65150;-81
2020/12/02 09:58:19;;;;;;;51.87;25.87;;;;;;;1.52;76.42;99515.52;125303;1095;65185;-82
2020/12/02 10:00:46;;;;;;;50.60;27.43;;;;;;;1.54;76.29;99514.58;125548;1095;65172;-83
2020/12/02 10:03:13;;;;;;;55.70;26.67;;;;;;;1.60;76.40;99510.92;125632;1095;65132;-84
2020/12/02 10:05:40;;;;;;;55.63;28.23;;;;;;;1.64;76.36;99504.64;125543;1095;65223;-80
2020/12/02 10:08:16;;;;;;;59.13;29.90;;;;;;;1.69;76.30;99492.21;125568;1095;65150;-80
2020/12/02 10:11:05;;;;;;;60.37;28.67;;;;;;;1.82;76.45;99496.20;125570;1095;65130;-83
2020/12/02 10:14:11;;;;;;;58.70;28.53;;;;;;;1.95;76.28;99477.41;125536;1095;65158;-82
2020/12/02 10:16:57;;;;;;;56.33;28.23;;;;;;;2.06;76.30;99475.31;125421;1098;65217;-80
2020/12/02 10:19:42;;;;;;;48.65;24.65;;;;;;;2.09;76.06;99472.57;125151;1098;65268;-81
2020/12/02 10:22:33;;;;;;;55.57;27.10;;;;;;;2.18;76.40;99464.39;125137;1098;65549;-82
2020/12/02 10:25:21;;;;;;;55.60;26.30;;;;;;;2.26;76.07;99472.05;124857;1101;65284;-79
2020/12/02 10:28:18;;;;;;;50.70;24.93;;;;;;;2.27;75.42;99464.09;124778;1100;65171;-81
2020/12/02 10:31:03;;;;;;;56.60;28.35;;;;;;;2.34;76.00;99462.98;124694;1097;65277;-81
2020/12/02 10:33:48;;;;;;;51.50;24.95;;;;;;;2.39;75.90;99463.70;124852;1102;65142;-83
2020/12/02 10:36:16;;;;;;;51.95;26.85;;;;;;;2.42;75.48;99454.84;124558;1104;65291;-85
2020/12/02 10:38:50;;;;;;;50.25;25.75;;;;;;;2.47;75.71;99457.31;124533;1105;65146;-84
2020/12/02 10:41:27;;;;;;;46.67;24.47;;;;;;;2.53;75.40;99454.47;124552;1101;65252;-83
2020/12/02 10:44:02;;;;;;;54.33;26.17;;;;;;;2.55;75.34;99450.03;124534;1103;65179;-80
2020/12/02 10:46:57;;;;;;;51.23;26.43;;;;;;;2.64;75.81;99449.72;124472;1103;65195;-82
2020/12/02 10:49:29;;;;;;;48.15;24.65;;;;;;;2.69;75.29;99447.79;124554;1102;65223;-81
2020/12/02 10:52:02;;;;;;;47.90;25.77;;;;;;;2.70;75.24;99436.32;124587;1103;65169;-81
2020/12/02 10:54:34;;;;;;;47.70;24.20;;;;;;;2.77;75.64;99435.20;124573;1101;65368;-81
2020/12/02 10:57:12;;;;;;;46.67;24.70;;;;;;;2.80;75.37;99437.75;124720;1101;65543;-81
2020/12/02 10:59:39;;;;;;;44.35;24.60;;;;;;;2.82;74.90;99435.91;124733;1101;65159;-80
2020/12/02 11:02:15;;;;;;;48.00;24.73;;;;;;;2.84;75.15;99431.43;124874;1098;65245;-81
2020/12/02 11:04:45;;;;;;;49.10;25.63;;;;;;;2.93;75.11;99425.84;125170;1099;65366;-80
2020/12/02 11:07:25;;;;;;;47.20;24.70;;;;;;;3.03;75.49;99423.73;125260;1097;65275;-83
2020/12/02 11:10:19;;;;;;;44.60;24.80;;;;;;;3.09;75.33;99422.66;125539;1095;65329;-82
2020/12/02 11:12:54;;;;;;;51.93;26.93;;;;;;;3.18;75.10;99417.03;125680;1095;65150;-82
2020/12/02 11:15:33;;;;;;;43.83;25.15;;;;;;;3.23;75.26;99421.23;125787;1095;65130;-81
2020/12/02 11:18:31;;;;;;;46.77;24.00;;;;;;;3.28;75.31;99412.30;125690;1095;65163;-80
2020/12/02 11:21:37;;;;;;;51.17;26.93;;;;;;;3.31;75.18;99406.88;125707;1095;65130;-81
2020/12/02 11:24:15;;;;;;;51.10;27.70;;;;;;;3.36;74.50;99397.88;125673;1095;65153;-80
2020/12/02 11:26:45;;;;;;;50.67;25.80;;;;;;;3.35;75.04;99390.89;125521;1095;65150;-83
2020/12/02 11:29:13;;;;;;;50.60;26.87;;;;;;;3.41;74.75;99388.02;125605;1095;65211;-82
2020/12/02 11:31:47;;;;;;;51.40;27.87;;;;;;;3.41;74.83;99384.52;125578;1095;65269;-82
2020/12/02 11:34:17;;;;;;;50.40;26.35;;;;;;;3.39;74.49;99383.73;125757;1095;65519;-83
2020/12/02 11:37:33;;;;;;;51.07;26.83;;;;;;;3.33;74.68;99383.95;125592;1096;65262;-84